sensor_id;sensor_type;location;lat;lon;timestamp;pressure;altitude;pressure_sealevel;temperature;humidity
28008;BME280;15333;50.010;20.020;2023-09-08T00:02:32;99678.03;;;13.20;100.00
28008;BME280;15333;50.010;20.020;2023-09-08T00:05:32;99676.28;;;13.19;100.00
28008;BME280;15333;50.010;20.020;2023-09-08T00:08:33;99673.97;;;13.14;100.00
28008;BME280;15333;50.010;20.020;2023-09-08T00:11:34;99669.19;;;13.05;100.00
28008;BME280;15333;50.010;20.020;2023-09-08T00:14:35;99672.00;;;13.04;100.00
28008;BME280;15333;50.010;20.020;2023-09-08T00:17:36;99665.34;;;12.97;100.00
28008;BME280;15333;50.010;20.020;2023-09-08T00:20:37;99663.59;;;12.95;100.00
28008;BME280;15333;50.010;20.020;2023-09-08T00:23:38;99669.22;;;12.92;100.00
28008;BME280;15333;50.010;20.020;2023-09-08T00:26:39;99671.91;;;12.92;100.00
28008;BME280;15333;50.010;20.020;2023-09-08T00:29:40;99676.72;;;12.87;100.00
28008;BME280;15333;50.010;20.020;2023-09-08T00:32:41;99678.44;;;12.88;100.00
28008;BME280;15333;50.010;20.020;2023-09-08T00:35:44;99673.06;;;13.01;100.00
28008;BME280;15333;50.010;20.020;2023-09-08T00:38:45;99667.22;;;13.32;100.00
28008;BME280;15333;50.010;20.020;2023-09-08T00:41:46;99656.69;;;13.29;100.00
28008;BME280;15333;50.010;20.020;2023-09-08T00:44:47;99663.72;;;13.19;100.00
28008;BME280;15333;50.010;20.020;2023-09-08T00:47:49;99666.63;;;13.04;100.00
28008;BME280;15333;50.010;20.020;2023-09-08T00:50:50;99661.44;;;13.01;100.00
28008;BME280;15333;50.010;20.020;2023-09-08T00:53:51;99658.47;;;12.92;100.00
28008;BME280;15333;50.010;20.020;2023-09-08T00:56:55;99659.09;;;12.96;100.00
28008;BME280;15333;50.010;20.020;2023-09-08T00:59:57;99659.75;;;13.00;100.00
28008;BME280;15333;50.010;20.020;2023-09-08T01:02:59;99664.06;;;12.89;100.00
28008;BME280;15333;50.010;20.020;2023-09-08T01:06:01;99654.19;;;12.77;100.00
28008;BME280;15333;50.010;20.020;2023-09-08T01:09:02;99656.31;;;12.72;100.00
28008;BME280;15333;50.010;20.020;2023-09-08T01:12:06;99654.81;;;12.68;100.00
28008;BME280;15333;50.010;20.020;2023-09-08T01:15:08;99655.66;;;12.81;100.00
28008;BME280;15333;50.010;20.020;2023-09-08T01:18:09;99653.00;;;12.81;100.00
28008;BME280;15333;50.010;20.020;2023-09-08T01:27:46;99649.13;;;12.47;100.00
28008;BME280;15333;50.010;20.020;2023-09-08T01:30:49;99652.44;;;12.51;100.00
28008;BME280;15333;50.010;20.020;2023-09-08T01:33:50;99655.38;;;12.48;100.00
28008;BME280;15333;50.010;20.020;2023-09-08T01:36:51;99647.06;;;12.51;100.00
28008;BME280;15333;50.010;20.020;2023-09-08T01:39:52;99645.59;;;12.47;100.00
28008;BME280;15333;50.010;20.020;2023-09-08T01:42:53;99656.94;;;12.38;100.00
28008;BME280;15333;50.010;20.020;2023-09-08T01:45:54;99651.59;;;12.38;100.00
28008;BME280;15333;50.010;20.020;2023-09-08T01:48:55;99646.22;;;12.38;100.00
28008;BME280;15333;50.010;20.020;2023-09-08T01:51:56;99652.69;;;12.35;100.00
28008;BME280;15333;50.010;20.020;2023-09-08T01:54:57;99661.41;;;12.64;100.00
28008;BME280;15333;50.010;20.020;2023-09-08T01:57:58;99645.81;;;12.69;100.00
28008;BME280;15333;50.010;20.020;2023-09-08T02:00:59;99656.13;;;12.50;100.00
28008;BME280;15333;50.010;20.020;2023-09-08T02:04:06;99651.38;;;12.41;100.00
28008;BME280;15333;50.010;20.020;2023-09-08T02:07:07;99648.69;;;12.28;100.00
28008;BME280;15333;50.010;20.020;2023-09-08T02:10:08;99644.06;;;12.18;100.00
28008;BME280;15333;50.010;20.020;2023-09-08T02:13:10;99645.09;;;12.02;100.00
28008;BME280;15333;50.010;20.020;2023-09-08T02:16:15;99643.50;;;12.12;100.00
28008;BME280;15333;50.010;20.020;2023-09-08T02:19:16;99646.81;;;12.03;100.00
28008;BME280;15333;50.010;20.020;2023-09-08T02:22:17;99646.19;;;12.12;100.00
28008;BME280;15333;50.010;20.020;2023-09-08T02:25:18;99641.88;;;12.10;100.00
28008;BME280;15333;50.010;20.020;2023-09-08T02:28:19;99649.56;;;11.89;100.00
28008;BME280;15333;50.010;20.020;2023-09-08T02:31:21;99642.25;;;11.79;100.00
28008;BME280;15333;50.010;20.020;2023-09-08T02:34:23;99637.13;;;11.88;100.00
28008;BME280;15333;50.010;20.020;2023-09-08T02:37:23;99641.69;;;12.00;100.00
28008;BME280;15333;50.010;20.020;2023-09-08T02:40:25;99636.31;;;12.13;100.00
28008;BME280;15333;50.010;20.020;2023-09-08T02:43:26;99638.56;;;12.06;100.00
28008;BME280;15333;50.010;20.020;2023-09-08T02:46:28;99632.97;;;12.09;100.00
28008;BME280;15333;50.010;20.020;2023-09-08T02:49:29;99633.75;;;12.37;100.00
28008;BME280;15333;50.010;20.020;2023-09-08T02:52:30;99631.72;;;12.40;100.00
28008;BME280;15333;50.010;20.020;2023-09-08T02:55:31;99630.53;;;12.32;100.00
28008;BME280;15333;50.010;20.020;2023-09-08T02:58:32;99628.19;;;12.40;100.00
28008;BME280;15333;50.010;20.020;2023-09-08T03:01:36;99629.16;;;12.39;100.00
28008;BME280;15333;50.010;20.020;2023-09-08T03:04:37;99625.59;;;12.51;100.00
28008;BME280;15333;50.010;20.020;2023-09-08T03:07:39;99622.63;;;12.43;100.00
28008;BME280;15333;50.010;20.020;2023-09-08T03:10:40;99626.03;;;12.45;100.00
28008;BME280;15333;50.010;20.020;2023-09-08T03:13:41;99620.66;;;12.45;100.00
28008;BME280;15333;50.010;20.020;2023-09-08T03:16:44;99620.44;;;12.23;100.00
28008;BME280;15333;50.010;20.020;2023-09-08T03:19:45;99617.00;;;12.21;100.00
28008;BME280;15333;50.010;20.020;2023-09-08T03:22:46;99620.94;;;12.02;100.00
28008;BME280;15333;50.010;20.020;2023-09-08T03:25:48;99611.81;;;11.92;100.00
28008;BME280;15333;50.010;20.020;2023-09-08T03:28:49;99611.16;;;11.89;100.00
28008;BME280;15333;50.010;20.020;2023-09-08T03:31:50;99607.75;;;11.99;100.00
28008;BME280;15333;50.010;20.020;2023-09-08T03:34:51;99614.09;;;11.98;100.00
28008;BME280;15333;50.010;20.020;2023-09-08T03:37:52;99608.56;;;11.87;100.00
28008;BME280;15333;50.010;20.020;2023-09-08T03:40:53;99610.53;;;11.85;100.00
28008;BME280;15333;50.010;20.020;2023-09-08T03:43:54;99609.78;;;11.69;100.00
28008;BME280;15333;50.010;20.020;2023-09-08T03:46:55;99604.63;;;11.66;100.00
28008;BME280;15333;50.010;20.020;2023-09-08T03:49:56;99600.34;;;11.63;100.00
28008;BME280;15333;50.010;20.020;2023-09-08T03:52:58;99608.28;;;11.65;100.00
28008;BME280;15333;50.010;20.020;2023-09-08T03:55:59;99596.44;;;11.55;100.00
28008;BME280;15333;50.010;20.020;2023-09-08T03:59:00;99591.28;;;11.52;100.00
28008;BME280;15333;50.010;20.020;2023-09-08T04:02:01;99594.47;;;11.44;100.00
28008;BME280;15333;50.010;20.020;2023-09-08T04:05:04;99589.63;;;11.36;100.00
28008;BME280;15333;50.010;20.020;2023-09-08T04:08:05;99603.22;;;11.33;100.00
28008;BME280;15333;50.010;20.020;2023-09-08T04:11:09;99601.31;;;11.35;100.00
28008;BME280;15333;50.010;20.020;2023-09-08T04:14:11;99604.72;;;11.37;100.00
28008;BME280;15333;50.010;20.020;2023-09-08T04:17:12;99602.22;;;11.49;100.00
28008;BME280;15333;50.010;20.020;2023-09-08T04:20:13;99600.41;;;11.76;100.00
28008;BME280;15333;50.010;20.020;2023-09-08T04:23:16;99603.00;;;11.90;100.00
28008;BME280;15333;50.010;20.020;2023-09-08T04:26:17;99610.22;;;12.02;100.00
28008;BME280;15333;50.010;20.020;2023-09-08T04:29:18;99614.00;;;12.12;100.00
28008;BME280;15333;50.010;20.020;2023-09-08T04:32:19;99614.88;;;12.26;100.00
28008;BME280;15333;50.010;20.020;2023-09-08T04:35:20;99612.09;;;12.27;100.00
28008;BME280;15333;50.010;20.020;2023-09-08T04:38:21;99608.88;;;12.35;100.00
28008;BME280;15333;50.010;20.020;2023-09-08T04:41:22;99606.38;;;12.32;100.00
28008;BME280;15333;50.010;20.020;2023-09-08T04:44:24;99617.56;;;12.26;100.00
28008;BME280;15333;50.010;20.020;2023-09-08T04:47:26;99618.19;;;12.16;100.00
28008;BME280;15333;50.010;20.020;2023-09-08T04:50:27;99611.41;;;12.11;100.00
28008;BME280;15333;50.010;20.020;2023-09-08T04:53:28;99617.63;;;12.11;100.00
28008;BME280;15333;50.010;20.020;2023-09-08T04:56:29;99625.78;;;12.23;100.00
28008;BME280;15333;50.010;20.020;2023-09-08T04:59:30;99611.41;;;12.24;100.00
28008;BME280;15333;50.010;20.020;2023-09-08T05:02:32;99606.81;;;12.26;100.00
28008;BME280;15333;50.010;20.020;2023-09-08T05:05:33;99599.19;;;12.45;100.00
28008;BME280;15333;50.010;20.020;2023-09-08T05:08:34;99602.00;;;12.56;100.00
28008;BME280;15333;50.010;20.020;2023-09-08T05:11:36;99608.28;;;12.80;100.00
28008;BME280;15333;50.010;20.020;2023-09-08T05:14:37;99604.28;;;12.99;100.00
28008;BME280;15333;50.010;20.020;2023-09-08T05:17:38;99611.53;;;13.22;100.00
28008;BME280;15333;50.010;20.020;2023-09-08T05:20:39;99605.50;;;13.31;100.00
28008;BME280;15333;50.010;20.020;2023-09-08T05:23:41;99611.75;;;13.31;100.00
28008;BME280;15333;50.010;20.020;2023-09-08T05:26:43;99620.22;;;13.38;100.00
28008;BME280;15333;50.010;20.020;2023-09-08T05:29:44;99621.34;;;13.23;100.00
28008;BME280;15333;50.010;20.020;2023-09-08T05:32:45;99618.63;;;13.23;100.00
28008;BME280;15333;50.010;20.020;2023-09-08T05:35:46;99616.72;;;13.25;100.00
28008;BME280;15333;50.010;20.020;2023-09-08T05:38:49;99610.13;;;13.29;100.00
28008;BME280;15333;50.010;20.020;2023-09-08T05:41:50;99622.22;;;13.47;100.00
28008;BME280;15333;50.010;20.020;2023-09-08T05:44:51;99625.88;;;13.46;100.00
28008;BME280;15333;50.010;20.020;2023-09-08T05:47:52;99630.00;;;13.39;100.00
28008;BME280;15333;50.010;20.020;2023-09-08T05:50:53;99625.25;;;13.66;100.00
28008;BME280;15333;50.010;20.020;2023-09-08T05:53:55;99625.41;;;13.52;100.00
28008;BME280;15333;50.010;20.020;2023-09-08T05:56:57;99627.53;;;13.60;100.00
28008;BME280;15333;50.010;20.020;2023-09-08T05:59:58;99623.81;;;13.73;100.00
28008;BME280;15333;50.010;20.020;2023-09-08T06:02:59;99621.97;;;13.98;100.00
28008;BME280;15333;50.010;20.020;2023-09-08T06:06:01;99634.16;;;14.26;100.00
28008;BME280;15333;50.010;20.020;2023-09-08T06:09:02;99627.44;;;14.31;100.00
28008;BME280;15333;50.010;20.020;2023-09-08T06:12:04;99627.50;;;14.42;100.00
28008;BME280;15333;50.010;20.020;2023-09-08T06:15:06;99624.75;;;14.31;100.00
28008;BME280;15333;50.010;20.020;2023-09-08T06:18:09;99617.91;;;14.27;100.00
28008;BME280;15333;50.010;20.020;2023-09-08T06:21:10;99625.97;;;14.27;100.00
28008;BME280;15333;50.010;20.020;2023-09-08T06:24:11;99622.13;;;14.65;100.00
28008;BME280;15333;50.010;20.020;2023-09-08T06:27:14;99617.97;;;14.72;100.00
28008;BME280;15333;50.010;20.020;2023-09-08T06:30:15;99622.41;;;14.84;100.00
28008;BME280;15333;50.010;20.020;2023-09-08T06:33:17;99617.72;;;14.86;100.00
28008;BME280;15333;50.010;20.020;2023-09-08T06:36:18;99614.81;;;14.89;100.00
28008;BME280;15333;50.010;20.020;2023-09-08T06:39:21;99622.13;;;15.09;100.00
28008;BME280;15333;50.010;20.020;2023-09-08T06:42:22;99618.44;;;15.55;100.00
28008;BME280;15333;50.010;20.020;2023-09-08T06:45:31;99619.59;;;15.51;100.00
28008;BME280;15333;50.010;20.020;2023-09-08T06:48:32;99608.88;;;15.40;100.00
28008;BME280;15333;50.010;20.020;2023-09-08T06:51:32;99614.91;;;15.75;100.00
28008;BME280;15333;50.010;20.020;2023-09-08T06:54:34;99609.03;;;16.23;100.00
28008;BME280;15333;50.010;20.020;2023-09-08T06:57:35;99607.28;;;16.12;100.00
28008;BME280;15333;50.010;20.020;2023-09-08T07:00:36;99605.28;;;16.14;100.00
28008;BME280;15333;50.010;20.020;2023-09-08T07:03:38;99606.94;;;16.68;100.00
28008;BME280;15333;50.010;20.020;2023-09-08T07:06:40;99612.19;;;17.00;100.00
28008;BME280;15333;50.010;20.020;2023-09-08T07:09:45;99602.22;;;17.00;100.00
28008;BME280;15333;50.010;20.020;2023-09-08T07:12:46;99607.78;;;16.68;100.00
28008;BME280;15333;50.010;20.020;2023-09-08T07:15:48;99612.53;;;16.14;100.00
28008;BME280;15333;50.010;20.020;2023-09-08T07:18:49;99611.34;;;16.48;100.00
28008;BME280;15333;50.010;20.020;2023-09-08T07:21:50;99601.00;;;16.53;100.00
28008;BME280;15333;50.010;20.020;2023-09-08T07:24:51;99599.81;;;16.46;100.00
28008;BME280;15333;50.010;20.020;2023-09-08T07:27:52;99603.97;;;16.09;100.00
28008;BME280;15333;50.010;20.020;2023-09-08T07:31:01;99613.38;;;16.35;100.00
28008;BME280;15333;50.010;20.020;2023-09-08T07:34:03;99605.47;;;16.43;100.00
28008;BME280;15333;50.010;20.020;2023-09-08T07:37:04;99600.38;;;16.50;100.00
28008;BME280;15333;50.010;20.020;2023-09-08T07:40:05;99601.53;;;16.47;100.00
28008;BME280;15333;50.010;20.020;2023-09-08T07:43:07;99607.63;;;16.49;100.00
28008;BME280;15333;50.010;20.020;2023-09-08T07:46:08;99603.91;;;16.61;100.00
28008;BME280;15333;50.010;20.020;2023-09-08T07:49:09;99612.72;;;16.63;100.00
28008;BME280;15333;50.010;20.020;2023-09-08T07:52:10;99606.75;;;16.90;100.00
28008;BME280;15333;50.010;20.020;2023-09-08T07:55:11;99613.19;;;16.99;100.00
28008;BME280;15333;50.010;20.020;2023-09-08T07:58:11;99609.22;;;17.03;100.00
28008;BME280;15333;50.010;20.020;2023-09-08T08:01:13;99606.59;;;16.92;100.00
28008;BME280;15333;50.010;20.020;2023-09-08T08:04:14;99601.34;;;17.30;100.00
28008;BME280;15333;50.010;20.020;2023-09-08T08:07:15;99596.41;;;17.54;100.00
28008;BME280;15333;50.010;20.020;2023-09-08T08:10:16;99584.91;;;17.72;100.00
28008;BME280;15333;50.010;20.020;2023-09-08T08:13:18;99589.31;;;17.92;100.00
28008;BME280;15333;50.010;20.020;2023-09-08T08:16:18;99586.91;;;18.08;100.00
28008;BME280;15333;50.010;20.020;2023-09-08T08:19:21;99589.75;;;18.16;100.00
28008;BME280;15333;50.010;20.020;2023-09-08T08:22:21;99591.88;;;18.32;100.00
28008;BME280;15333;50.010;20.020;2023-09-08T08:25:22;99583.16;;;18.28;100.00
28008;BME280;15333;50.010;20.020;2023-09-08T08:28:23;99584.28;;;18.45;100.00
28008;BME280;15333;50.010;20.020;2023-09-08T08:31:25;99577.38;;;18.70;100.00
28008;BME280;15333;50.010;20.020;2023-09-08T08:34:26;99574.50;;;18.81;100.00
28008;BME280;15333;50.010;20.020;2023-09-08T08:37:27;99577.00;;;18.92;100.00
28008;BME280;15333;50.010;20.020;2023-09-08T08:40:28;99580.97;;;18.98;100.00
28008;BME280;15333;50.010;20.020;2023-09-08T08:43:31;99571.19;;;19.14;100.00
28008;BME280;15333;50.010;20.020;2023-09-08T08:46:38;99572.91;;;19.33;100.00
28008;BME280;15333;50.010;20.020;2023-09-08T08:49:43;99580.16;;;19.42;100.00
28008;BME280;15333;50.010;20.020;2023-09-08T08:52:46;99563.84;;;19.52;100.00
28008;BME280;15333;50.010;20.020;2023-09-08T08:55:49;99558.09;;;19.55;100.00
28008;BME280;15333;50.010;20.020;2023-09-08T08:58:51;99560.03;;;19.63;100.00
28008;BME280;15333;50.010;20.020;2023-09-08T09:01:54;99561.44;;;19.84;100.00
28008;BME280;15333;50.010;20.020;2023-09-08T09:04:56;99556.53;;;19.70;100.00
28008;BME280;15333;50.010;20.020;2023-09-08T09:07:58;99559.34;;;19.78;100.00
28008;BME280;15333;50.010;20.020;2023-09-08T09:10:59;99562.28;;;20.03;100.00
28008;BME280;15333;50.010;20.020;2023-09-08T09:14:00;99555.78;;;20.21;100.00
28008;BME280;15333;50.010;20.020;2023-09-08T09:17:01;99558.44;;;20.13;100.00
28008;BME280;15333;50.010;20.020;2023-09-08T09:20:17;99553.16;;;20.29;100.00
28008;BME280;15333;50.010;20.020;2023-09-08T09:23:33;99548.38;;;20.49;100.00
28008;BME280;15333;50.010;20.020;2023-09-08T09:26:35;99547.84;;;20.71;100.00
28008;BME280;15333;50.010;20.020;2023-09-08T09:29:49;99549.25;;;20.84;100.00
28008;BME280;15333;50.010;20.020;2023-09-08T09:33:02;99544.81;;;20.83;100.00
28008;BME280;15333;50.010;20.020;2023-09-08T09:36:03;99535.31;;;20.87;100.00
28008;BME280;15333;50.010;20.020;2023-09-08T09:39:04;99538.28;;;21.01;100.00
28008;BME280;15333;50.010;20.020;2023-09-08T09:42:05;99530.59;;;20.97;89.36
28008;BME280;15333;50.010;20.020;2023-09-08T09:45:06;99529.72;;;20.96;94.41
28008;BME280;15333;50.010;20.020;2023-09-08T09:48:10;99527.94;;;21.13;92.62
28008;BME280;15333;50.010;20.020;2023-09-08T09:51:20;99521.19;;;21.17;89.65
28008;BME280;15333;50.010;20.020;2023-09-08T09:54:21;99519.50;;;21.32;87.88
28008;BME280;15333;50.010;20.020;2023-09-08T09:57:22;99520.19;;;21.34;92.57
28008;BME280;15333;50.010;20.020;2023-09-08T10:00:26;99526.34;;;21.36;88.75
28008;BME280;15333;50.010;20.020;2023-09-08T10:03:27;99518.66;;;21.32;90.91
28008;BME280;15333;50.010;20.020;2023-09-08T10:06:31;99513.06;;;21.41;93.10
28008;BME280;15333;50.010;20.020;2023-09-08T10:09:32;99514.09;;;21.48;91.59
28008;BME280;15333;50.010;20.020;2023-09-08T10:12:34;99515.00;;;21.65;90.18
28008;BME280;15333;50.010;20.020;2023-09-08T10:15:37;99509.19;;;21.68;89.71
28008;BME280;15333;50.010;20.020;2023-09-08T10:18:41;99516.19;;;21.87;88.78
28008;BME280;15333;50.010;20.020;2023-09-08T10:21:46;99516.91;;;22.05;86.80
28008;BME280;15333;50.010;20.020;2023-09-08T10:24:50;99514.84;;;22.07;86.91
28008;BME280;15333;50.010;20.020;2023-09-08T10:27:54;99507.69;;;22.22;86.58
28008;BME280;15333;50.010;20.020;2023-09-08T10:30:55;99515.88;;;22.31;85.62
28008;BME280;15333;50.010;20.020;2023-09-08T10:33:57;99507.13;;;22.43;84.53
28008;BME280;15333;50.010;20.020;2023-09-08T10:36:58;99504.56;;;22.42;85.08
28008;BME280;15333;50.010;20.020;2023-09-08T10:40:23;99497.88;;;22.52;86.01
28008;BME280;15333;50.010;20.020;2023-09-08T10:43:24;99498.84;;;22.67;83.58
28008;BME280;15333;50.010;20.020;2023-09-08T10:46:27;99497.69;;;22.62;83.36
28008;BME280;15333;50.010;20.020;2023-09-08T10:49:34;99501.09;;;22.64;82.93
28008;BME280;15333;50.010;20.020;2023-09-08T10:52:35;99485.75;;;22.79;82.86
28008;BME280;15333;50.010;20.020;2023-09-08T10:55:40;99486.72;;;22.86;82.44
28008;BME280;15333;50.010;20.020;2023-09-08T10:58:42;99480.81;;;23.06;79.03
28008;BME280;15333;50.010;20.020;2023-09-08T11:01:44;99484.19;;;23.16;76.19
28008;BME280;15333;50.010;20.020;2023-09-08T11:04:45;99486.22;;;23.22;77.99
28008;BME280;15333;50.010;20.020;2023-09-08T11:07:47;99475.44;;;23.20;76.56
28008;BME280;15333;50.010;20.020;2023-09-08T11:10:50;99478.94;;;23.37;75.89
28008;BME280;15333;50.010;20.020;2023-09-08T11:13:51;99476.97;;;23.46;74.35
28008;BME280;15333;50.010;20.020;2023-09-08T11:16:52;99471.81;;;23.28;76.28
28008;BME280;15333;50.010;20.020;2023-09-08T11:19:53;99474.41;;;23.52;75.17
28008;BME280;15333;50.010;20.020;2023-09-08T11:22:55;99474.69;;;23.65;72.67
28008;BME280;15333;50.010;20.020;2023-09-08T11:25:56;99474.97;;;23.70;72.07
28008;BME280;15333;50.010;20.020;2023-09-08T11:28:57;99466.88;;;23.77;70.60
28008;BME280;15333;50.010;20.020;2023-09-08T11:31:58;99473.94;;;23.71;68.54
28008;BME280;15333;50.010;20.020;2023-09-08T11:35:07;99471.84;;;23.73;68.54
28008;BME280;15333;50.010;20.020;2023-09-08T11:38:10;99473.25;;;23.92;66.44
28008;BME280;15333;50.010;20.020;2023-09-08T11:41:11;99467.97;;;23.91;66.77
28008;BME280;15333;50.010;20.020;2023-09-08T11:44:15;99469.81;;;24.13;67.04
28008;BME280;15333;50.010;20.020;2023-09-08T11:47:17;99466.44;;;24.26;66.87
28008;BME280;15333;50.010;20.020;2023-09-08T11:50:18;99465.38;;;24.12;65.40
28008;BME280;15333;50.010;20.020;2023-09-08T11:53:21;99468.38;;;24.17;66.33
28008;BME280;15333;50.010;20.020;2023-09-08T11:56:22;99459.38;;;24.31;64.94
28008;BME280;15333;50.010;20.020;2023-09-08T11:59:23;99449.91;;;24.19;63.51
28008;BME280;15333;50.010;20.020;2023-09-08T12:02:25;99456.34;;;24.26;63.37
28008;BME280;15333;50.010;20.020;2023-09-08T12:05:29;99457.41;;;24.40;62.91
28008;BME280;15333;50.010;20.020;2023-09-08T12:08:30;99459.28;;;24.39;61.03
28008;BME280;15333;50.010;20.020;2023-09-08T12:11:35;99449.00;;;24.41;60.74
28008;BME280;15333;50.010;20.020;2023-09-08T12:14:43;99449.28;;;24.46;60.16
28008;BME280;15333;50.010;20.020;2023-09-08T12:17:49;99446.28;;;24.04;64.17
28008;BME280;15333;50.010;20.020;2023-09-08T12:21:03;99440.44;;;24.30;65.32
28008;BME280;15333;50.010;20.020;2023-09-08T12:24:05;99443.28;;;24.51;61.25
28008;BME280;15333;50.010;20.020;2023-09-08T12:27:06;99438.06;;;24.56;60.12
28008;BME280;15333;50.010;20.020;2023-09-08T12:30:08;99426.34;;;24.47;61.37
28008;BME280;15333;50.010;20.020;2023-09-08T12:33:10;99434.47;;;24.55;60.77
28008;BME280;15333;50.010;20.020;2023-09-08T12:36:18;99428.34;;;24.53;59.54
28008;BME280;15333;50.010;20.020;2023-09-08T12:39:20;99427.97;;;24.56;60.41
28008;BME280;15333;50.010;20.020;2023-09-08T12:42:21;99421.47;;;24.57;59.56
28008;BME280;15333;50.010;20.020;2023-09-08T12:45:27;99416.00;;;24.57;59.15
28008;BME280;15333;50.010;20.020;2023-09-08T12:48:28;99423.69;;;24.69;58.85
28008;BME280;15333;50.010;20.020;2023-09-08T12:51:29;99414.06;;;24.73;58.85
28008;BME280;15333;50.010;20.020;2023-09-08T12:54:30;99405.88;;;24.58;61.69
28008;BME280;15333;50.010;20.020;2023-09-08T12:57:31;99406.34;;;24.62;60.70
28008;BME280;15333;50.010;20.020;2023-09-08T13:00:32;99402.81;;;24.82;59.13
28008;BME280;15333;50.010;20.020;2023-09-08T13:03:32;99407.91;;;24.85;59.19
28008;BME280;15333;50.010;20.020;2023-09-08T13:06:33;99411.22;;;24.81;57.94
28008;BME280;15333;50.010;20.020;2023-09-08T13:09:35;99399.25;;;24.67;58.89
28008;BME280;15333;50.010;20.020;2023-09-08T13:12:36;99399.72;;;24.71;57.92
28008;BME280;15333;50.010;20.020;2023-09-08T13:15:37;99399.69;;;24.85;58.34
28008;BME280;15333;50.010;20.020;2023-09-08T13:18:38;99407.34;;;24.75;57.76
28008;BME280;15333;50.010;20.020;2023-09-08T13:21:39;99396.03;;;24.78;57.36
28008;BME280;15333;50.010;20.020;2023-09-08T13:24:40;99393.47;;;24.77;57.11
28008;BME280;15333;50.010;20.020;2023-09-08T13:27:41;99399.03;;;24.83;57.06
28008;BME280;15333;50.010;20.020;2023-09-08T13:30:43;99394.00;;;24.87;58.13
28008;BME280;15333;50.010;20.020;2023-09-08T13:33:44;99400.72;;;24.99;58.51
28008;BME280;15333;50.010;20.020;2023-09-08T13:36:45;99400.63;;;25.07;58.31
28008;BME280;15333;50.010;20.020;2023-09-08T13:39:45;99395.88;;;25.01;56.86
28008;BME280;15333;50.010;20.020;2023-09-08T13:42:46;99390.41;;;25.01;56.79
28008;BME280;15333;50.010;20.020;2023-09-08T13:45:47;99394.84;;;25.02;57.28
28008;BME280;15333;50.010;20.020;2023-09-08T13:48:49;99383.72;;;24.89;57.97
28008;BME280;15333;50.010;20.020;2023-09-08T13:51:49;99387.31;;;24.89;57.40
28008;BME280;15333;50.010;20.020;2023-09-08T13:54:55;99381.09;;;24.95;58.26
28008;BME280;15333;50.010;20.020;2023-09-08T13:57:56;99377.78;;;25.00;57.41
28008;BME280;15333;50.010;20.020;2023-09-08T14:00:57;99378.94;;;24.91;57.72
28008;BME280;15333;50.010;20.020;2023-09-08T14:03:58;99370.97;;;24.96;57.58
28008;BME280;15333;50.010;20.020;2023-09-08T14:07:01;99378.09;;;24.90;57.01
28008;BME280;15333;50.010;20.020;2023-09-08T14:10:02;99362.84;;;24.88;57.09
28008;BME280;15333;50.010;20.020;2023-09-08T14:13:08;99368.31;;;24.88;56.46
28008;BME280;15333;50.010;20.020;2023-09-08T14:16:09;99362.84;;;24.88;56.62
28008;BME280;15333;50.010;20.020;2023-09-08T14:19:10;99367.22;;;24.97;57.16
28008;BME280;15333;50.010;20.020;2023-09-08T14:22:11;99363.25;;;24.85;57.06
28008;BME280;15333;50.010;20.020;2023-09-08T14:25:12;99361.16;;;24.87;57.39
28008;BME280;15333;50.010;20.020;2023-09-08T14:28:13;99353.59;;;24.89;58.13
28008;BME280;15333;50.010;20.020;2023-09-08T14:31:14;99353.06;;;24.79;58.01
28008;BME280;15333;50.010;20.020;2023-09-08T14:34:15;99351.38;;;24.78;58.56
28008;BME280;15333;50.010;20.020;2023-09-08T14:37:16;99356.06;;;24.84;58.43
28008;BME280;15333;50.010;20.020;2023-09-08T14:40:17;99351.81;;;24.81;58.65
28008;BME280;15333;50.010;20.020;2023-09-08T14:43:18;99353.59;;;24.89;58.23
28008;BME280;15333;50.010;20.020;2023-09-08T14:46:18;99335.38;;;24.81;58.01
28008;BME280;15333;50.010;20.020;2023-09-08T14:49:20;99343.53;;;24.75;58.46
28008;BME280;15333;50.010;20.020;2023-09-08T14:52:20;99339.50;;;24.71;58.93
28008;BME280;15333;50.010;20.020;2023-09-08T14:55:22;99337.03;;;24.76;58.49
28008;BME280;15333;50.010;20.020;2023-09-08T14:58:23;99334.75;;;24.79;58.12
28008;BME280;15333;50.010;20.020;2023-09-08T15:01:26;99341.28;;;24.78;58.83
28008;BME280;15333;50.010;20.020;2023-09-08T15:04:26;99339.50;;;24.71;58.91
28008;BME280;15333;50.010;20.020;2023-09-08T15:07:28;99335.44;;;24.67;59.25
28008;BME280;15333;50.010;20.020;2023-09-08T15:10:28;99334.03;;;24.71;59.31
28008;BME280;15333;50.010;20.020;2023-09-08T15:13:29;99327.03;;;24.68;59.87
28008;BME280;15333;50.010;20.020;2023-09-08T15:16:30;99334.03;;;24.71;60.29
28008;BME280;15333;50.010;20.020;2023-09-08T15:19:32;99330.25;;;24.72;60.85
28008;BME280;15333;50.010;20.020;2023-09-08T15:22:32;99335.72;;;24.72;59.99
28008;BME280;15333;50.010;20.020;2023-09-08T15:25:33;99331.66;;;24.68;59.58
28008;BME280;15333;50.010;20.020;2023-09-08T15:28:34;99326.38;;;24.66;60.82
28008;BME280;15333;50.010;20.020;2023-09-08T15:31:35;99324.28;;;24.68;61.13
28008;BME280;15333;50.010;20.020;2023-09-08T15:34:36;99322.41;;;24.69;60.27
28008;BME280;15333;50.010;20.020;2023-09-08T15:37:37;99318.38;;;24.65;59.97
28008;BME280;15333;50.010;20.020;2023-09-08T15:40:39;99325.84;;;24.56;60.28
28008;BME280;15333;50.010;20.020;2023-09-08T15:43:55;99322.72;;;24.44;61.40
28008;BME280;15333;50.010;20.020;2023-09-08T15:46:56;99317.66;;;24.41;61.38
28008;BME280;15333;50.010;20.020;2023-09-08T15:49:57;99318.44;;;24.35;61.94